Time;durP1;ratioP1;P1;durP2;ratioP2;P2;SDS_P1;SDS_P2;PMS_P1;PMS_P2;Temp;Humidity;BMP_temperature;BMP_pressure;BME280_temperature;BME280_humidity;BME280_pressure;Samples;Min_cycle;Max_cycle;Signal;HPM_P1;HPM_P2
2019/06/20 00:01:36;;;;;;;2.61;2.25;;;;;;;22.23;56.41;100074.66;;;;-54
2019/06/20 00:04:36;;;;;;;2.40;2.20;;;;;;;22.23;56.29;100076.52;;;;-53
2019/06/20 00:07:36;;;;;;;3.55;2.10;;;;;;;22.22;56.38;100088.03;;;;-54
2019/06/20 00:10:36;;;;;;;2.40;2.20;;;;;;;22.23;56.38;100090.22;;;;-63
2019/06/20 00:13:36;;;;;;;3.31;2.29;;;;;;;22.21;56.34;100082.38;;;;-63
2019/06/20 00:16:36;;;;;;;3.18;2.20;;;;;;;22.21;56.38;100078.84;;;;-62
2019/06/20 00:19:37;;;;;;;2.56;2.19;;;;;;;22.20;56.36;100066.38;;;;-63
2019/06/20 00:22:36;;;;;;;2.71;2.30;;;;;;;22.20;56.34;100049.86;;;;-56
2019/06/20 00:25:36;;;;;;;2.71;2.07;;;;;;;22.20;56.36;100057.86;;;;-55
2019/06/20 00:28:36;;;;;;;2.38;2.18;;;;;;;22.20;56.39;100096.62;;;;-56
2019/06/20 00:31:36;;;;;;;2.21;2.01;;;;;;;22.20;56.37;100125.12;;;;-55
2019/06/20 00:34:36;;;;;;;3.06;2.26;;;;;;;22.19;56.37;100130.67;;;;-54
2019/06/20 00:37:36;;;;;;;3.24;2.15;;;;;;;22.18;56.40;100110.93;;;;-54
2019/06/20 00:40:36;;;;;;;2.28;2.08;;;;;;;22.18;56.44;100086.14;;;;-54
2019/06/20 00:43:36;;;;;;;2.17;1.97;;;;;;;22.17;56.44;100105.86;;;;-54
2019/06/20 00:46:36;;;;;;;3.40;2.16;;;;;;;22.17;56.43;100101.11;;;;-54
2019/06/20 00:49:36;;;;;;;2.51;1.95;;;;;;;22.17;56.43;100111.75;;;;-53
2019/06/20 00:52:36;;;;;;;2.20;2.01;;;;;;;22.16;56.37;100106.53;;;;-54
2019/06/20 00:55:36;;;;;;;2.97;1.94;;;;;;;22.16;56.42;100099.81;;;;-54
2019/06/20 00:58:36;;;;;;;3.25;2.18;;;;;;;22.16;56.38;100102.91;;;;-53
2019/06/20 01:01:36;;;;;;;2.29;1.99;;;;;;;22.16;56.37;100110.20;;;;-53
2019/06/20 01:04:36;;;;;;;2.70;2.03;;;;;;;22.16;56.34;100117.37;;;;-53
2019/06/20 01:07:36;;;;;;;2.36;2.10;;;;;;;22.15;56.40;100116.27;;;;-54
2019/06/20 01:10:36;;;;;;;2.58;2.13;;;;;;;22.15;56.43;100119.19;;;;-54
2019/06/20 01:13:36;;;;;;;2.70;2.08;;;;;;;22.14;56.40;100117.41;;;;-54
2019/06/20 01:16:36;;;;;;;2.30;2.10;;;;;;;22.14;56.44;100108.56;;;;-54
2019/06/20 01:19:36;;;;;;;2.65;2.00;;;;;;;22.14;56.43;100100.09;;;;-53
2019/06/20 01:22:36;;;;;;;2.69;2.00;;;;;;;22.14;56.41;100102.78;;;;-54
2019/06/20 01:25:36;;;;;;;2.41;2.09;;;;;;;22.14;56.40;100097.73;;;;-53
2019/06/20 01:28:36;;;;;;;2.40;2.09;;;;;;;22.12;56.38;100097.34;;;;-53
2019/06/20 01:31:36;;;;;;;2.27;2.06;;;;;;;22.12;56.41;100099.96;;;;-53
2019/06/20 01:34:36;;;;;;;2.07;1.97;;;;;;;22.12;56.43;100101.05;;;;-54
2019/06/20 01:37:36;;;;;;;2.11;1.90;;;;;;;22.12;56.45;100097.68;;;;-53
2019/06/20 01:40:36;;;;;;;2.31;1.97;;;;;;;22.11;56.42;100097.81;;;;-54
2019/06/20 01:43:36;;;;;;;1.91;1.80;;;;;;;22.11;56.39;100103.20;;;;-53
2019/06/20 01:46:36;;;;;;;1.99;1.77;;;;;;;22.12;56.42;100106.33;;;;-54
2019/06/20 01:49:36;;;;;;;2.27;1.91;;;;;;;22.11;56.46;100102.59;;;;-54
2019/06/20 01:52:36;;;;;;;2.45;1.82;;;;;;;22.10;56.40;100105.52;;;;-54
2019/06/20 01:55:36;;;;;;;1.99;1.79;;;;;;;22.11;56.43;100108.98;;;;-54
2019/06/20 01:58:36;;;;;;;2.12;1.92;;;;;;;22.10;56.39;100106.03;;;;-53
2019/06/20 02:01:36;;;;;;;2.09;1.89;;;;;;;22.09;56.47;100104.48;;;;-54
2019/06/20 02:04:36;;;;;;;2.27;1.93;;;;;;;22.09;56.42;100103.38;;;;-53
2019/06/20 02:07:36;;;;;;;2.25;1.81;;;;;;;22.09;56.45;100113.80;;;;-53
2019/06/20 02:10:36;;;;;;;2.29;2.01;;;;;;;22.09;56.42;100114.41;;;;-53
2019/06/20 02:13:36;;;;;;;1.87;1.77;;;;;;;22.08;56.41;100107.15;;;;-54
2019/06/20 02:16:36;;;;;;;1.90;1.80;;;;;;;22.09;56.49;100106.51;;;;-52
2019/06/20 02:19:36;;;;;;;2.07;1.75;;;;;;;22.08;56.49;100103.79;;;;-50
2019/06/20 02:22:36;;;;;;;1.99;1.85;;;;;;;22.08;56.41;100107.15;;;;-50
2019/06/20 02:25:36;;;;;;;2.07;1.87;;;;;;;22.07;56.47;100112.50;;;;-52
2019/06/20 02:28:36;;;;;;;2.08;1.89;;;;;;;22.08;56.49;100123.20;;;;-51
2019/06/20 02:31:36;;;;;;;2.99;1.93;;;;;;;22.07;56.51;100132.02;;;;-50
2019/06/20 02:34:36;;;;;;;2.07;1.91;;;;;;;22.07;56.52;100137.23;;;;-56
2019/06/20 02:37:36;;;;;;;2.03;1.83;;;;;;;22.07;56.45;100136.39;;;;-56
2019/06/20 02:40:36;;;;;;;2.11;1.83;;;;;;;22.07;56.46;100142.61;;;;-56
2019/06/20 02:43:36;;;;;;;3.14;1.83;;;;;;;22.06;56.51;100152.67;;;;-56
2019/06/20 02:46:36;;;;;;;2.13;1.91;;;;;;;22.06;56.44;100156.38;;;;-62
2019/06/20 02:49:36;;;;;;;2.23;1.97;;;;;;;22.05;56.50;100157.85;;;;-63
2019/06/20 02:52:36;;;;;;;1.72;1.61;;;;;;;22.06;56.51;100163.60;;;;-62
2019/06/20 02:55:36;;;;;;;2.14;1.90;;;;;;;22.05;56.44;100170.06;;;;-50
2019/06/20 02:58:36;;;;;;;2.03;1.81;;;;;;;22.06;56.48;100181.50;;;;-51
2019/06/20 03:01:36;;;;;;;1.87;1.75;;;;;;;22.05;56.45;100185.77;;;;-50
2019/06/20 03:04:36;;;;;;;2.30;1.81;;;;;;;22.04;56.52;100187.09;;;;-50
2019/06/20 03:07:36;;;;;;;2.00;1.80;;;;;;;22.04;56.51;100190.11;;;;-50
2019/06/20 03:10:36;;;;;;;2.09;1.81;;;;;;;22.03;56.50;100190.42;;;;-51
2019/06/20 03:13:36;;;;;;;1.84;1.74;;;;;;;22.03;56.47;100193.28;;;;-50
2019/06/20 03:16:36;;;;;;;1.93;1.80;;;;;;;22.04;56.52;100199.46;;;;-50
2019/06/20 03:19:36;;;;;;;1.97;1.82;;;;;;;22.04;56.50;100200.27;;;;-50
2019/06/20 03:22:36;;;;;;;2.04;1.79;;;;;;;22.04;56.48;100199.43;;;;-50
2019/06/20 03:25:36;;;;;;;1.85;1.75;;;;;;;22.03;56.45;100203.70;;;;-52
2019/06/20 03:28:36;;;;;;;1.83;1.73;;;;;;;22.02;56.52;100200.98;;;;-50
2019/06/20 03:31:36;;;;;;;2.25;1.80;;;;;;;22.03;56.53;100204.95;;;;-50
2019/06/20 03:34:36;;;;;;;2.42;1.68;;;;;;;22.02;56.45;100204.52;;;;-50
2019/06/20 03:37:36;;;;;;;1.85;1.68;;;;;;;22.01;56.51;100198.77;;;;-50
2019/06/20 03:40:36;;;;;;;1.90;1.80;;;;;;;22.01;56.47;100198.43;;;;-50
2019/06/20 03:43:36;;;;;;;1.85;1.70;;;;;;;22.02;56.48;100197.52;;;;-50
2019/06/20 03:46:36;;;;;;;1.77;1.67;;;;;;;22.01;56.51;100195.74;;;;-52
2019/06/20 03:49:36;;;;;;;1.91;1.71;;;;;;;22.01;56.46;100198.59;;;;-50
2019/06/20 03:52:36;;;;;;;1.81;1.71;;;;;;;22.01;56.48;100201.62;;;;-50
2019/06/20 03:55:36;;;;;;;2.05;1.85;;;;;;;22.00;56.48;100202.77;;;;-50
2019/06/20 03:58:36;;;;;;;1.65;1.55;;;;;;;22.00;56.47;100203.27;;;;-51
2019/06/20 04:01:36;;;;;;;2.15;1.85;;;;;;;22.01;56.49;100210.03;;;;-50
2019/06/20 04:04:36;;;;;;;2.03;1.80;;;;;;;22.00;56.51;100216.83;;;;-52
2019/06/20 04:07:36;;;;;;;1.86;1.76;;;;;;;22.00;56.50;100216.30;;;;-50
2019/06/20 04:10:36;;;;;;;1.80;1.70;;;;;;;21.99;56.44;100209.73;;;;-50
2019/06/20 04:13:36;;;;;;;1.97;1.70;;;;;;;21.99;56.50;100208.12;;;;-50
2019/06/20 04:16:36;;;;;;;2.02;1.79;;;;;;;22.00;56.53;100210.24;;;;-50
2019/06/20 04:19:36;;;;;;;2.03;1.79;;;;;;;21.99;56.50;100212.09;;;;-50
2019/06/20 04:22:36;;;;;;;1.69;1.59;;;;;;;21.99;56.47;100205.50;;;;-52
2019/06/20 04:25:36;;;;;;;1.80;1.70;;;;;;;21.99;56.44;100208.70;;;;-50
2019/06/20 04:28:36;;;;;;;1.85;1.72;;;;;;;21.98;56.48;100206.48;;;;-50
2019/06/20 04:31:36;;;;;;;2.27;1.79;;;;;;;21.98;56.50;100207.42;;;;-50
2019/06/20 04:34:36;;;;;;;1.90;1.70;;;;;;;21.98;56.48;100209.30;;;;-50
2019/06/20 04:37:36;;;;;;;1.70;1.60;;;;;;;21.97;56.52;100202.88;;;;-50
2019/06/20 04:40:36;;;;;;;2.60;1.85;;;;;;;21.97;56.47;100203.69;;;;-50
2019/06/20 04:43:36;;;;;;;1.83;1.73;;;;;;;21.97;56.49;100202.69;;;;-50
2019/06/20 04:46:44;;;;;;;1.75;1.65;;;;;;;21.97;56.47;100205.11;;;;-50
2019/06/20 04:49:36;;;;;;;2.19;1.69;;;;;;;21.96;56.46;100203.77;;;;-50
2019/06/20 04:52:36;;;;;;;1.95;1.68;;;;;;;21.96;56.45;100209.24;;;;-50
2019/06/20 04:55:37;;;;;;;2.05;1.51;;;;;;;21.96;56.44;100204.70;;;;-50
2019/06/20 04:58:36;;;;;;;1.75;1.65;;;;;;;21.96;56.50;100210.66;;;;-50
2019/06/20 05:01:36;;;;;;;1.67;1.56;;;;;;;21.96;56.43;100216.70;;;;-50
2019/06/20 05:04:36;;;;;;;1.91;1.81;;;;;;;21.96;56.49;100228.65;;;;-50
2019/06/20 05:07:36;;;;;;;1.57;1.47;;;;;;;21.95;56.51;100226.73;;;;-50
2019/06/20 05:10:36;;;;;;;1.85;1.75;;;;;;;21.95;56.45;100228.28;;;;-51
2019/06/20 05:13:36;;;;;;;3.32;2.24;;;;;;;21.85;60.67;100234.87;;;;-54
2019/06/20 05:16:36;;;;;;;5.57;2.96;;;;;;;21.71;62.92;100240.31;;;;-54
2019/06/20 05:19:36;;;;;;;3.39;2.95;;;;;;;21.63;64.98;100233.19;;;;-55
2019/06/20 05:22:36;;;;;;;5.07;3.13;;;;;;;21.59;65.43;100234.81;;;;-55
2019/06/20 05:25:36;;;;;;;5.01;2.90;;;;;;;21.69;63.71;100236.08;;;;-55
2019/06/20 05:28:36;;;;;;;3.31;2.68;;;;;;;21.74;62.95;100234.52;;;;-55
2019/06/20 05:31:36;;;;;;;3.98;2.94;;;;;;;21.77;62.39;100233.94;;;;-55
2019/06/20 05:34:36;;;;;;;5.55;2.76;;;;;;;21.80;61.88;100232.02;;;;-55
2019/06/20 05:37:36;;;;;;;3.19;2.53;;;;;;;21.82;61.44;100234.60;;;;-55
2019/06/20 05:40:36;;;;;;;3.56;2.51;;;;;;;21.84;60.99;100232.72;;;;-55
2019/06/20 05:43:36;;;;;;;2.68;2.41;;;;;;;21.85;60.55;100228.64;;;;-55
2019/06/20 05:46:36;;;;;;;3.65;2.29;;;;;;;21.86;60.24;100230.19;;;;-55
2019/06/20 05:49:36;;;;;;;3.45;2.44;;;;;;;21.87;60.08;100228.70;;;;-56
2019/06/20 05:52:36;;;;;;;3.03;2.53;;;;;;;21.87;59.75;100227.20;;;;-56
2019/06/20 05:55:36;;;;;;;2.47;2.27;;;;;;;21.87;59.57;100226.86;;;;-54
2019/06/20 05:58:36;;;;;;;3.56;2.25;;;;;;;21.88;59.43;100223.19;;;;-55
2019/06/20 06:01:36;;;;;;;2.71;2.25;;;;;;;21.89;59.29;100223.22;;;;-55
2019/06/20 06:04:36;;;;;;;2.51;2.31;;;;;;;21.89;59.20;100223.29;;;;-55
2019/06/20 06:07:36;;;;;;;2.73;2.37;;;;;;;21.89;59.04;100226.48;;;;-54
2019/06/20 06:10:36;;;;;;;2.42;2.22;;;;;;;21.89;58.98;100225.47;;;;-55
2019/06/20 06:13:36;;;;;;;3.51;2.35;;;;;;;21.89;58.93;100230.28;;;;-54
2019/06/20 06:16:36;;;;;;;4.39;2.25;;;;;;;21.88;58.96;100229.34;;;;-54
2019/06/20 06:19:36;;;;;;;4.51;2.38;;;;;;;21.87;59.30;100225.84;;;;-55
2019/06/20 06:22:36;;;;;;;4.11;2.77;;;;;;;21.88;60.97;100224.70;;;;-54
2019/06/20 06:25:36;;;;;;;4.63;2.89;;;;;;;21.87;61.41;100223.39;;;;-55
2019/06/20 06:28:36;;;;;;;2.74;2.47;;;;;;;21.87;61.31;100226.76;;;;-53
2019/06/20 06:31:36;;;;;;;3.81;2.63;;;;;;;21.86;61.32;100227.33;;;;-54
2019/06/20 06:34:36;;;;;;;4.49;2.80;;;;;;;21.87;60.65;100233.08;;;;-55
2019/06/20 06:37:36;;;;;;;2.82;2.31;;;;;;;21.88;60.05;100236.64;;;;-55
2019/06/20 06:40:36;;;;;;;2.93;2.62;;;;;;;21.89;59.90;100236.50;;;;-55
2019/06/20 06:43:37;;;;;;;4.07;2.21;;;;;;;21.89;59.81;100236.77;;;;-55
2019/06/20 06:46:36;;;;;;;3.01;2.63;;;;;;;21.90;59.56;100239.56;;;;-54
2019/06/20 06:49:36;;;;;;;2.96;2.55;;;;;;;21.90;59.41;100238.98;;;;-55
2019/06/20 06:52:36;;;;;;;3.87;2.43;;;;;;;21.90;59.22;100240.80;;;;-54
2019/06/20 06:55:36;;;;;;;3.47;2.42;;;;;;;21.90;59.09;100244.84;;;;-53
2019/06/20 06:58:36;;;;;;;3.38;2.36;;;;;;;21.91;58.98;100249.98;;;;-54
2019/06/20 07:01:36;;;;;;;2.83;2.27;;;;;;;21.90;58.92;100246.63;;;;-54
2019/06/20 07:04:36;;;;;;;3.49;2.57;;;;;;;21.90;58.83;100246.22;;;;-53
2019/06/20 07:07:36;;;;;;;2.52;2.29;;;;;;;21.90;58.70;100246.72;;;;-54
2019/06/20 07:10:36;;;;;;;3.89;2.21;;;;;;;21.90;58.67;100249.75;;;;-54
2019/06/20 07:13:36;;;;;;;2.37;2.17;;;;;;;21.90;58.56;100252.44;;;;-53
2019/06/20 07:16:36;;;;;;;8.23;2.59;;;;;;;21.89;58.87;100250.69;;;;-52
2019/06/20 07:19:36;;;;;;;3.91;2.33;;;;;;;21.91;58.89;100247.46;;;;-52
2019/06/20 07:22:36;;;;;;;4.61;2.29;;;;;;;21.93;58.84;100249.74;;;;-51
2019/06/20 07:25:36;;;;;;;3.99;2.26;;;;;;;21.94;59.07;100248.50;;;;-52
2019/06/20 07:28:36;;;;;;;2.87;2.30;;;;;;;21.95;58.95;100245.00;;;;-51
2019/06/20 07:31:36;;;;;;;2.86;2.37;;;;;;;21.96;58.94;100250.34;;;;-52
2019/06/20 07:34:36;;;;;;;3.55;2.23;;;;;;;21.99;59.01;100248.75;;;;-55
2019/06/20 07:37:36;;;;;;;2.81;2.17;;;;;;;22.02;59.19;100249.52;;;;-52
2019/06/20 07:40:36;;;;;;;2.87;2.09;;;;;;;22.04;59.20;100252.74;;;;-50
2019/06/20 07:43:36;;;;;;;2.73;2.33;;;;;;;22.05;59.27;100248.66;;;;-51
2019/06/20 07:46:36;;;;;;;5.48;2.32;;;;;;;22.06;59.24;100245.77;;;;-52
2019/06/20 07:49:36;;;;;;;2.42;2.15;;;;;;;22.07;59.16;100242.41;;;;-52
2019/06/20 07:52:36;;;;;;;3.62;2.36;;;;;;;22.08;59.21;100241.70;;;;-51
2019/06/20 07:55:36;;;;;;;2.65;2.23;;;;;;;22.09;59.13;100242.63;;;;-51
2019/06/20 07:58:36;;;;;;;3.73;2.19;;;;;;;22.09;59.15;100233.55;;;;-52
2019/06/20 08:01:36;;;;;;;4.68;2.37;;;;;;;22.10;59.10;100229.14;;;;-50
2019/06/20 08:04:36;;;;;;;3.47;2.25;;;;;;;22.12;59.19;100226.67;;;;-51
2019/06/20 08:07:36;;;;;;;2.75;2.29;;;;;;;22.13;59.16;100227.37;;;;-52
2019/06/20 08:10:36;;;;;;;3.17;2.22;;;;;;;22.14;59.22;100233.06;;;;-51
2019/06/20 08:13:36;;;;;;;7.16;2.42;;;;;;;22.16;59.24;100226.86;;;;-51
2019/06/20 08:16:36;;;;;;;5.67;2.11;;;;;;;22.18;59.07;100232.55;;;;-51
2019/06/20 08:19:36;;;;;;;4.46;2.24;;;;;;;22.21;59.18;100237.81;;;;-52
2019/06/20 08:22:36;;;;;;;5.04;2.24;;;;;;;22.20;58.75;100232.53;;;;-51
2019/06/20 08:25:36;;;;;;;4.25;2.11;;;;;;;22.20;58.87;100230.69;;;;-58
2019/06/20 08:28:36;;;;;;;3.99;2.30;;;;;;;22.19;59.16;100230.18;;;;-56
2019/06/20 08:31:36;;;;;;;4.09;2.23;;;;;;;22.21;59.03;100224.89;;;;-58
2019/06/20 08:34:36;;;;;;;2.88;2.10;;;;;;;22.21;58.87;100227.86;;;;-57
2019/06/20 08:37:36;;;;;;;4.93;2.36;;;;;;;22.22;58.78;100233.77;;;;-58
2019/06/20 08:40:39;;;;;;;3.73;2.19;;;;;;;22.21;59.11;100231.66;;;;-60
2019/06/20 08:43:36;;;;;;;6.23;2.50;;;;;;;22.24;58.92;100247.13;;;;-53
2019/06/20 08:46:36;;;;;;;5.53;2.34;;;;;;;22.25;58.85;100243.38;;;;-57
2019/06/20 08:49:36;;;;;;;5.83;2.17;;;;;;;22.26;58.89;100243.31;;;;-53
2019/06/20 08:52:36;;;;;;;4.47;2.27;;;;;;;22.27;58.87;100241.89;;;;-62
2019/06/20 08:55:36;;;;;;;3.29;2.19;;;;;;;22.26;58.63;100239.11;;;;-57
2019/06/20 08:58:36;;;;;;;2.99;2.30;;;;;;;22.28;58.72;100238.73;;;;-56
2019/06/20 09:01:36;;;;;;;3.47;2.40;;;;;;;22.29;58.72;100243.80;;;;-58
2019/06/20 09:04:36;;;;;;;3.96;2.19;;;;;;;22.30;58.68;100242.59;;;;-46
2019/06/20 09:07:37;;;;;;;3.49;2.28;;;;;;;22.31;58.62;100240.77;;;;-47
2019/06/20 09:10:36;;;;;;;5.19;2.48;;;;;;;22.32;58.39;100246.19;;;;-48
2019/06/20 09:13:36;;;;;;;3.73;2.32;;;;;;;22.33;58.48;100247.22;;;;-45
2019/06/20 09:16:38;;;;;;;4.17;2.29;;;;;;;22.33;58.38;100245.27;;;;-49
2019/06/20 09:19:36;;;;;;;3.67;2.39;;;;;;;22.34;58.53;100243.64;;;;-52
2019/06/20 09:22:36;;;;;;;3.93;2.34;;;;;;;22.35;58.31;100241.33;;;;-46
2019/06/20 09:25:36;;;;;;;4.40;2.23;;;;;;;22.35;58.41;100240.14;;;;-46
2019/06/20 09:28:36;;;;;;;4.13;2.45;;;;;;;22.36;58.21;100242.02;;;;-47
2019/06/20 09:31:37;;;;;;;5.03;2.29;;;;;;;22.36;58.41;100239.16;;;;-47
2019/06/20 09:34:36;;;;;;;4.03;2.29;;;;;;;22.36;58.37;100239.77;;;;-48
2019/06/20 09:37:36;;;;;;;10.73;2.60;;;;;;;22.39;58.37;100237.84;;;;-51
2019/06/20 09:40:37;;;;;;;7.77;2.36;;;;;;;22.41;58.10;100238.14;;;;-56
2019/06/20 09:43:36;;;;;;;6.60;2.57;;;;;;;22.39;58.15;100242.21;;;;-50
2019/06/20 09:46:36;;;;;;;6.58;2.39;;;;;;;22.41;58.38;100245.37;;;;-52
2019/06/20 09:49:36;;;;;;;5.74;2.61;;;;;;;22.40;58.24;100245.44;;;;-51
2019/06/20 09:52:36;;;;;;;7.23;2.40;;;;;;;22.41;58.31;100246.21;;;;-53
2019/06/20 09:55:36;;;;;;;4.23;2.21;;;;;;;22.40;58.24;100233.83;;;;-52
2019/06/20 09:58:36;;;;;;;6.15;2.30;;;;;;;22.41;58.28;100236.95;;;;-48
2019/06/20 10:01:36;;;;;;;3.95;2.31;;;;;;;22.41;58.13;100239.14;;;;-51
2019/06/20 10:04:37;;;;;;;5.15;2.31;;;;;;;22.42;58.21;100242.61;;;;-49
2019/06/20 10:07:36;;;;;;;4.38;2.15;;;;;;;22.42;58.34;100245.39;;;;-47
2019/06/20 10:10:36;;;;;;;3.76;2.08;;;;;;;22.42;58.24;100244.63;;;;-48
2019/06/20 10:13:36;;;;;;;8.11;2.27;;;;;;;22.44;58.05;100247.14;;;;-52
2019/06/20 10:16:36;;;;;;;4.29;2.13;;;;;;;22.44;58.21;100244.95;;;;-49
2019/06/20 10:19:36;;;;;;;4.07;2.17;;;;;;;22.44;58.15;100240.41;;;;-51
2019/06/20 10:22:36;;;;;;;5.05;2.37;;;;;;;22.45;58.10;100239.09;;;;-58
2019/06/20 10:25:36;;;;;;;5.56;2.43;;;;;;;22.45;58.13;100240.34;;;;-56
2019/06/20 10:28:36;;;;;;;3.51;2.34;;;;;;;22.46;58.01;100236.42;;;;-60
2019/06/20 10:31:36;;;;;;;3.36;2.25;;;;;;;22.46;58.10;100230.94;;;;-48
2019/06/20 10:34:36;;;;;;;5.27;2.31;;;;;;;22.46;58.07;100225.32;;;;-50
2019/06/20 10:37:36;;;;;;;7.18;2.35;;;;;;;22.47;58.01;100223.13;;;;-48
2019/06/20 10:40:36;;;;;;;3.22;2.23;;;;;;;22.46;58.05;100221.18;;;;-47
2019/06/20 10:43:36;;;;;;;2.77;2.21;;;;;;;22.46;57.91;100225.99;;;;-51
2019/06/20 10:46:37;;;;;;;6.63;2.31;;;;;;;22.46;57.72;100232.22;;;;-51
2019/06/20 10:49:37;;;;;;;7.02;2.30;;;;;;;22.45;57.89;100234.95;;;;-50
2019/06/20 10:52:37;;;;;;;6.31;2.35;;;;;;;22.45;58.10;100245.72;;;;-46
2019/06/20 10:55:36;;;;;;;5.91;2.29;;;;;;;22.44;57.75;100243.70;;;;-48
2019/06/20 10:58:37;;;;;;;5.45;2.35;;;;;;;22.44;57.83;100239.80;;;;-48
2019/06/20 11:01:36;;;;;;;3.53;2.14;;;;;;;22.44;57.75;100240.23;;;;-49
2019/06/20 11:04:36;;;;;;;6.51;2.33;;;;;;;22.43;57.89;100255.08;;;;-48
2019/06/20 11:07:36;;;;;;;5.33;2.23;;;;;;;22.42;57.74;100256.73;;;;-48
2019/06/20 11:10:36;;;;;;;3.84;2.10;;;;;;;22.42;57.69;100264.64;;;;-49
2019/06/20 11:13:36;;;;;;;3.80;2.05;;;;;;;22.41;57.75;100268.69;;;;-48
2019/06/20 11:16:36;;;;;;;4.24;2.42;;;;;;;22.41;57.69;100266.91;;;;-48
2019/06/20 11:19:36;;;;;;;4.02;2.07;;;;;;;22.40;57.70;100275.13;;;;-48
2019/06/20 11:22:36;;;;;;;3.71;2.10;;;;;;;22.40;57.66;100278.92;;;;-48
2019/06/20 11:25:36;;;;;;;5.43;2.21;;;;;;;22.39;57.56;100271.90;;;;-48
2019/06/20 11:28:36;;;;;;;2.59;2.10;;;;;;;22.38;57.61;100271.30;;;;-48
2019/06/20 11:31:36;;;;;;;3.53;1.99;;;;;;;22.38;57.55;100277.18;;;;-48
2019/06/20 11:34:36;;;;;;;2.65;2.00;;;;;;;22.38;57.56;100280.38;;;;-48
2019/06/20 11:37:36;;;;;;;3.15;2.21;;;;;;;22.38;57.57;100280.45;;;;-52
2019/06/20 11:40:37;;;;;;;4.53;2.00;;;;;;;22.37;57.60;100273.79;;;;-53
2019/06/20 11:43:36;;;;;;;3.31;2.04;;;;;;;22.37;57.48;100266.45;;;;-52
2019/06/20 11:46:36;;;;;;;3.65;2.13;;;;;;;22.35;57.48;100260.09;;;;-51
2019/06/20 11:49:36;;;;;;;2.68;2.07;;;;;;;22.35;57.48;100256.91;;;;-51
2019/06/20 11:52:36;;;;;;;3.27;2.06;;;;;;;22.35;57.51;100252.19;;;;-51
2019/06/20 11:55:36;;;;;;;3.23;2.24;;;;;;;22.35;57.46;100248.56;;;;-52
2019/06/20 11:58:36;;;;;;;3.07;2.01;;;;;;;22.34;57.43;100241.97;;;;-52
2019/06/20 12:01:36;;;;;;;2.79;2.03;;;;;;;22.34;57.42;100238.27;;;;-51
2019/06/20 12:04:36;;;;;;;2.93;2.16;;;;;;;22.33;57.41;100233.76;;;;-51
2019/06/20 12:07:36;;;;;;;3.87;1.95;;;;;;;22.33;57.45;100229.45;;;;-48
2019/06/20 12:10:36;;;;;;;3.57;1.83;;;;;;;22.32;57.42;100225.98;;;;-51
2019/06/20 12:13:36;;;;;;;3.29;2.03;;;;;;;22.33;57.33;100224.84;;;;-51
2019/06/20 12:16:36;;;;;;;3.81;2.19;;;;;;;22.33;57.34;100227.27;;;;-51
2019/06/20 12:19:36;;;;;;;3.03;1.91;;;;;;;22.32;57.33;100221.28;;;;-52
2019/06/20 12:22:36;;;;;;;4.01;2.05;;;;;;;22.31;57.35;100217.45;;;;-51
2019/06/20 12:25:36;;;;;;;4.74;2.28;;;;;;;22.32;57.45;100224.48;;;;-44
2019/06/20 12:28:36;;;;;;;7.02;2.14;;;;;;;22.35;57.70;100221.41;;;;-57
2019/06/20 12:31:36;;;;;;;4.81;2.04;;;;;;;22.39;57.96;100219.40;;;;-56
2019/06/20 12:34:38;;;;;;;6.71;2.19;;;;;;;22.43;57.98;100211.10;;;;-53
2019/06/20 12:37:36;;;;;;;6.31;2.33;;;;;;;22.46;58.15;100213.94;;;;-58
2019/06/20 12:40:36;;;;;;;7.19;2.10;;;;;;;22.50;58.13;100217.69;;;;-52
2019/06/20 12:43:36;;;;;;;5.63;2.33;;;;;;;22.52;58.37;100217.52;;;;-53
2019/06/20 12:46:36;;;;;;;5.81;2.17;;;;;;;22.55;57.88;100214.20;;;;-59
2019/06/20 12:49:36;;;;;;;4.71;2.01;;;;;;;22.57;58.10;100211.05;;;;-64
2019/06/20 12:52:36;;;;;;;8.23;2.09;;;;;;;22.57;58.23;100216.70;;;;-50
2019/06/20 12:55:36;;;;;;;6.69;2.17;;;;;;;22.59;57.90;100212.39;;;;-46
2019/06/20 12:58:37;;;;;;;5.81;2.29;;;;;;;22.58;58.05;100215.96;;;;-49
2019/06/20 13:01:36;;;;;;;5.45;2.23;;;;;;;22.59;58.11;100217.44;;;;-48
2019/06/20 13:04:36;;;;;;;5.45;2.23;;;;;;;22.59;58.10;100213.97;;;;-51
2019/06/20 13:07:36;;;;;;;4.75;2.35;;;;;;;22.59;58.05;100205.63;;;;-48
2019/06/20 13:10:36;;;;;;;8.34;2.37;;;;;;;22.61;58.12;100202.18;;;;-52
2019/06/20 13:13:36;;;;;;;7.11;2.50;;;;;;;22.62;58.03;100201.09;;;;-49
2019/06/20 13:16:36;;;;;;;5.71;2.93;;;;;;;22.61;58.19;100211.00;;;;-51
2019/06/20 13:19:36;;;;;;;10.83;2.84;;;;;;;22.62;58.31;100214.80;;;;-51
2019/06/20 13:22:36;;;;;;;8.01;3.09;;;;;;;22.63;58.24;100210.78;;;;-52
2019/06/20 13:25:36;;;;;;;8.25;2.90;;;;;;;22.64;58.21;100207.55;;;;-50
2019/06/20 13:28:36;;;;;;;14.66;3.05;;;;;;;22.64;58.36;100204.86;;;;-52
2019/06/20 13:31:36;;;;;;;7.24;2.95;;;;;;;22.63;58.38;100199.00;;;;-63
2019/06/20 13:34:36;;;;;;;8.74;2.95;;;;;;;22.66;58.42;100193.70;;;;-53
2019/06/20 13:37:36;;;;;;;9.50;2.84;;;;;;;22.66;58.38;100189.76;;;;-65
2019/06/20 13:40:36;;;;;;;9.24;3.00;;;;;;;22.68;58.55;100200.08;;;;-61
2019/06/20 13:43:36;;;;;;;7.21;2.97;;;;;;;22.71;58.60;100203.13;;;;-64
2019/06/20 13:46:36;;;;;;;6.77;3.05;;;;;;;22.70;58.46;100209.66;;;;-55
2019/06/20 13:49:36;;;;;;;6.55;2.98;;;;;;;22.72;58.57;100203.52;;;;-52
2019/06/20 13:52:36;;;;;;;9.70;3.00;;;;;;;22.71;58.38;100203.70;;;;-48
2019/06/20 13:55:36;;;;;;;7.35;2.87;;;;;;;22.71;58.49;100208.31;;;;-49
2019/06/20 13:58:36;;;;;;;6.35;2.91;;;;;;;22.71;58.32;100208.88;;;;-49
2019/06/20 14:01:36;;;;;;;7.79;3.06;;;;;;;22.70;58.29;100194.07;;;;-49
2019/06/20 14:04:36;;;;;;;4.21;2.77;;;;;;;22.71;58.10;100195.58;;;;-51
2019/06/20 14:07:36;;;;;;;7.59;2.99;;;;;;;22.71;58.29;100188.30;;;;-49
2019/06/20 14:10:36;;;;;;;6.60;2.84;;;;;;;22.70;57.95;100184.64;;;;-61
2019/06/20 14:13:36;;;;;;;5.07;2.78;;;;;;;22.68;58.23;100183.48;;;;-61
2019/06/20 14:16:36;;;;;;;14.06;3.13;;;;;;;22.70;58.27;100185.05;;;;-58
2019/06/20 14:19:36;;;;;;;10.76;3.00;;;;;;;22.71;58.28;100190.03;;;;-60
2019/06/20 14:22:36;;;;;;;6.63;2.97;;;;;;;22.70;58.33;100192.56;;;;-61
2019/06/20 14:25:36;;;;;;;8.25;2.89;;;;;;;22.71;58.15;100195.11;;;;-57
2019/06/20 14:28:36;;;;;;;5.39;2.84;;;;;;;22.71;58.12;100202.83;;;;-58
2019/06/20 14:31:36;;;;;;;22.33;3.33;;;;;;;22.72;57.93;100210.26;;;;-54
2019/06/20 14:34:36;;;;;;;8.30;2.96;;;;;;;22.71;58.02;100203.94;;;;-52
2019/06/20 14:37:36;;;;;;;9.76;3.01;;;;;;;22.71;58.10;100205.19;;;;-55
2019/06/20 14:40:36;;;;;;;7.25;2.67;;;;;;;22.71;58.15;100209.73;;;;-53
2019/06/20 14:43:36;;;;;;;7.39;2.93;;;;;;;22.71;58.10;100203.50;;;;-53
2019/06/20 14:46:36;;;;;;;9.43;2.87;;;;;;;22.70;57.93;100202.25;;;;-52
2019/06/20 14:49:36;;;;;;;7.64;2.89;;;;;;;22.71;57.85;100205.88;;;;-52
2019/06/20 14:52:36;;;;;;;8.29;2.75;;;;;;;22.71;57.93;100200.80;;;;-53
2019/06/20 14:55:36;;;;;;;6.85;2.91;;;;;;;22.71;57.76;100205.69;;;;-52
2019/06/20 14:58:36;;;;;;;6.09;2.65;;;;;;;22.70;57.89;100211.65;;;;-53
2019/06/20 15:01:36;;;;;;;8.73;3.03;;;;;;;22.70;58.00;100207.61;;;;-51
2019/06/20 15:04:36;;;;;;;7.07;2.81;;;;;;;22.71;58.07;100197.91;;;;-51
2019/06/20 15:07:36;;;;;;;7.19;2.77;;;;;;;22.71;57.99;100194.77;;;;-51
2019/06/20 15:10:36;;;;;;;7.89;2.89;;;;;;;22.72;57.96;100196.45;;;;-51
2019/06/20 15:13:36;;;;;;;7.66;2.77;;;;;;;22.71;57.74;100199.83;;;;-51
2019/06/20 15:16:36;;;;;;;9.64;2.74;;;;;;;22.72;57.89;100201.94;;;;-51
2019/06/20 15:19:36;;;;;;;5.67;2.52;;;;;;;22.72;57.75;100203.22;;;;-53
2019/06/20 15:22:36;;;;;;;6.31;2.93;;;;;;;22.73;57.99;100207.72;;;;-52
2019/06/20 15:25:36;;;;;;;5.22;2.61;;;;;;;22.73;57.69;100199.84;;;;-50
2019/06/20 15:28:36;;;;;;;6.63;2.77;;;;;;;22.73;57.81;100201.20;;;;-52
2019/06/20 15:31:36;;;;;;;6.89;2.62;;;;;;;22.73;57.87;100201.06;;;;-55
2019/06/20 15:34:36;;;;;;;6.51;2.63;;;;;;;22.73;57.76;100197.52;;;;-62
2019/06/20 15:37:36;;;;;;;9.04;2.86;;;;;;;22.75;57.88;100192.86;;;;-61
2019/06/20 15:40:36;;;;;;;12.07;3.23;;;;;;;22.76;57.76;100191.20;;;;-58
2019/06/20 15:43:36;;;;;;;8.35;2.53;;;;;;;22.75;57.91;100194.04;;;;-57
2019/06/20 15:46:36;;;;;;;8.39;2.57;;;;;;;22.75;58.07;100197.67;;;;-60
2019/06/20 15:49:36;;;;;;;7.13;2.47;;;;;;;22.76;58.47;100198.84;;;;-50
2019/06/20 15:52:36;;;;;;;8.59;2.48;;;;;;;22.77;58.30;100192.72;;;;-51
2019/06/20 15:55:36;;;;;;;9.17;2.59;;;;;;;22.78;58.52;100196.65;;;;-58
2019/06/20 15:58:36;;;;;;;7.01;2.69;;;;;;;22.78;58.48;100201.77;;;;-54
2019/06/20 16:01:36;;;;;;;10.24;2.89;;;;;;;22.80;58.44;100199.22;;;;-60
2019/06/20 16:04:36;;;;;;;8.11;2.77;;;;;;;22.83;59.20;100204.42;;;;-53
2019/06/20 16:07:36;;;;;;;7.99;2.72;;;;;;;22.84;58.35;100203.78;;;;-56
2019/06/20 16:10:36;;;;;;;11.06;2.84;;;;;;;22.84;58.67;100205.46;;;;-51
2019/06/20 16:13:36;;;;;;;9.29;2.68;;;;;;;22.83;58.66;100201.66;;;;-50
2019/06/20 16:16:36;;;;;;;12.52;3.04;;;;;;;22.84;58.71;100207.66;;;;-51
2019/06/20 16:19:36;;;;;;;6.59;2.80;;;;;;;22.83;58.61;100203.75;;;;-47
2019/06/20 16:22:36;;;;;;;6.91;2.71;;;;;;;22.83;58.21;100205.94;;;;-50
2019/06/20 16:25:36;;;;;;;7.03;2.70;;;;;;;22.83;58.20;100201.47;;;;-46
2019/06/20 16:28:36;;;;;;;8.75;2.68;;;;;;;22.82;58.29;100207.59;;;;-49
2019/06/20 16:31:36;;;;;;;5.49;2.51;;;;;;;22.82;58.38;100202.38;;;;-46
2019/06/20 16:34:36;;;;;;;7.65;2.59;;;;;;;22.81;58.24;100201.50;;;;-48
2019/06/20 16:37:37;;;;;;;7.64;2.92;;;;;;;22.82;58.27;100203.72;;;;-50
2019/06/20 16:40:36;;;;;;;4.75;2.40;;;;;;;22.82;58.32;100198.41;;;;-51